Carbondale, KS (66414)

3:41 AM CST on February 14, 2016 (GMT -0600)
Fly over Country | | Change Station
CLOSE
Current Station
Personal Weather Station
Location: Burlingame, KS
Elevation: 1063 ft
Nearby Weather Stations

Elev 1063 ft 38.74 °N, 95.78 °W | Updated 3 seconds ago

Mostly Cloudy
Mostly Cloudy
24.4 °F
Feels Like 24 °F
N
2.8
Wind Variable Wind from ESE
Gusts 7.0 mph

Today
High -- | Low -- °F
--% Chance of Precip.
Yesterday
High -- | Low -- °F
Precip. -- in
Pressure 30.09 in
Visibility 10.0 miles
Clouds Scattered Clouds 6000 ft
Scattered Clouds 7500 ft
Mostly Cloudy 11000 ft
Windchill 24 °F
Dew Point 16 °F
Humidity 70%
Rainfall 0.00 in
Snow Depth Not available.
7:15 AM 5:58 PM
Waxing Crescent, 40% visible
METAR KFOE 140853Z AUTO 10006KT 10SM SCT060 SCT075 BKN110 M04/M14 A3005 RMK AO2 SLP187 T10391139 56030
Pressure 30.09 in
Visibility 10.0 miles
Clouds Scattered Clouds 6000 ft
Scattered Clouds 7500 ft
Mostly Cloudy 11000 ft
Windchill 24 °F
Dew Point 16 °F
Humidity 70%
Rainfall 0.00 in
Snow Depth Not available.
7:15 AM 5:58 PM
Waxing Crescent, 40% visible
METAR KFOE 140853Z AUTO 10006KT 10SM SCT060 SCT075 BKN110 M04/M14 A3005 RMK AO2 SLP187 T10391139 56030

10-Day Weather Forecast

Almanac

Astronomy

Feb. 14, 2016 Rise Set
Actual Time
Civil Twilight
Nautical Twilight
Astronomical Twilight
Moon
Length of Visible Light
Length of Day
Tomorrow will be .
, % of the Moon is Illuminated

Today's Extremes

State Highs State Lows

Community

WunderPhotos

Upload Photos

1,892,761 photos uploaded!

WunderBlog® & News

Nearby

Air Quality

  Air Quality AQ Index Pollutant
Not available.

Snow Depth

Station Depth Elevation

Earthquake Activity

City Distance Mag. Time & Date
Minimum magnitude displayed is 2.5.

Coastal Water Temperatures

Place Temperature

Stations

Nearby Weather Stations

Station Location Temp. Windchill Dew Point Humidity Wind Precip. Elev Updated Type
                   

Watches & Warnings

There are currently no watches in effect.